This is the latest recevied weather packets stored in our database for station/object K4AMF. If no packets are shown the sender has not sent any weather packets the latest 10 day(s).
| Time | Temp. | Humidity | Pressure | Rain* | Wind** | Luminosity | Snow |
|---|---|---|---|---|---|---|---|
| 1777667766 | 30° C | 57% | 1010.1 hPa | 0 mm | - | 511 W/m² | - |
| 1777667463 | 28.89° C | 59% | 1009.9 hPa | 0 mm | - | 456 W/m² | - |
| 1777667160 | 28.89° C | 59% | 1010.1 hPa | 0 mm | - | 363 W/m² | - |
| 1777666857 | 29.44° C | 58% | 1010.3 hPa | 0 mm | - | 404 W/m² | - |
| 1777666554 | 30.56° C | 56% | 1010.3 hPa | 0 mm | - | 358 W/m² | - |
| 1777666250 | 30° C | 55% | 1010.4 hPa | 0 mm | - | 429 W/m² | - |
| 1777665947 | 30° C | 55% | 1010.4 hPa | 0 mm | - | 581 W/m² | - |
| 1777665645 | 30.56° C | 56% | 1010.6 hPa | 0 mm | - | 271 W/m² | - |
| 1777665342 | 30.56° C | 53% | 1010.7 hPa | 0 mm | - | 677 W/m² | - |
| 1777664431 | 29.44° C | 57% | 1011 hPa | 0 mm | - | 510 W/m² | - |
| 1777664127 | 29.44° C | 58% | 1011.1 hPa | 0 mm | - | 251 W/m² | - |
| 1777663220 | 29.44° C | 57% | 1011.6 hPa | 0 mm | - | 821 W/m² | - |
| 1777662614 | 29.44° C | 56% | 1011.6 hPa | 0 mm | - | 219 W/m² | - |
| 1777662309 | 30° C | 55% | 1011.7 hPa | 0 mm | - | 303 W/m² | - |
| 1777661701 | 29.44° C | 55% | 1011.7 hPa | 0 mm | - | 812 W/m² | - |
| 1777660182 | 28.89° C | 58% | 1012 hPa | 0 mm | - | 288 W/m² | - |
| 1777659879 | 29.44° C | 59% | 1012 hPa | 0 mm | - | 829 W/m² | - |
| 1777659576 | 29.44° C | 59% | 1012.2 hPa | 0 mm | - | 855 W/m² | - |
| 1777659273 | 28.89° C | 58% | 1012 hPa | 0 mm | - | 455 W/m² | - |
| 1777658970 | 28.89° C | 58% | 1012.1 hPa | 0 mm | - | 341 W/m² | - |
| 1777658667 | 28.33° C | 58% | 1012.1 hPa | 0 mm | - | 359 W/m² | - |
| 1777658060 | 28.89° C | 59% | 1012.2 hPa | 0 mm | - | 550 W/m² | - |
| 1777655633 | 27.78° C | 64% | 1012.8 hPa | 0 mm | - | 611 W/m² | - |
| 1777654724 | 27.78° C | 64% | 1012.9 hPa | 0 mm | - | 343 W/m² | - |
| 1777654422 | 28.33° C | 64% | 1013.2 hPa | 0 mm | - | 627 W/m² | - |
* Rain latest hour (hover to see other rain measurements)
** Current wind speed in m/s (hover to see current wind gust speed)